createdAt,value
2018-12-06T00:01:38.243Z,0.42
2018-12-06T00:04:04.111Z,0.40
2018-12-06T00:06:29.978Z,0.38
2018-12-06T00:08:55.849Z,0.44
2018-12-06T00:11:21.714Z,0.48
2018-12-06T00:13:47.630Z,0.52
2018-12-06T00:16:13.501Z,0.46
2018-12-06T00:18:39.374Z,0.45
2018-12-06T00:21:05.237Z,0.51
2018-12-06T00:23:31.124Z,0.69
2018-12-06T00:25:57.007Z,0.62
2018-12-06T00:28:22.906Z,0.59
2018-12-06T00:30:48.798Z,0.61
2018-12-06T00:33:14.651Z,0.62
2018-12-06T00:35:40.725Z,0.68
2018-12-06T00:38:06.595Z,0.69
2018-12-06T00:40:32.458Z,0.66
2018-12-06T00:42:58.400Z,0.77
2018-12-06T00:45:24.296Z,0.79
2018-12-06T00:47:50.167Z,0.76
2018-12-06T00:50:16.038Z,0.68
2018-12-06T00:52:41.895Z,0.66
2018-12-06T00:55:07.779Z,0.77
2018-12-06T00:57:33.638Z,0.86
2018-12-06T00:59:59.506Z,0.85
2018-12-06T01:02:25.360Z,0.81
2018-12-06T01:04:51.247Z,0.75
2018-12-06T01:07:24.122Z,0.73
2018-12-06T01:09:56.923Z,0.70
2018-12-06T01:12:23.108Z,0.65
2018-12-06T01:14:48.947Z,0.57
2018-12-06T01:17:14.798Z,0.65
2018-12-06T01:19:40.646Z,0.64
2018-12-06T01:22:06.498Z,0.70
2018-12-06T01:24:32.376Z,0.89
2018-12-06T01:26:58.251Z,0.95
2018-12-06T01:29:24.123Z,0.88
2018-12-06T01:31:50.004Z,0.92
2018-12-06T01:34:15.876Z,0.82
2018-12-06T01:36:41.743Z,0.78
2018-12-06T01:39:07.632Z,0.86
2018-12-06T01:41:33.519Z,0.78
2018-12-06T01:44:00.661Z,0.73
2018-12-06T01:46:26.522Z,0.72
2018-12-06T01:48:52.371Z,0.68
2018-12-06T01:51:18.211Z,0.68
2018-12-06T01:53:44.070Z,0.65
2018-12-06T01:56:09.927Z,0.61
2018-12-06T01:58:35.774Z,0.49
2018-12-06T02:01:01.651Z,0.53
2018-12-06T02:03:27.502Z,0.47
2018-12-06T02:05:53.387Z,0.51
2018-12-06T02:08:19.303Z,0.51
2018-12-06T02:10:45.204Z,0.55
2018-12-06T02:13:11.059Z,0.63
2018-12-06T02:15:36.927Z,0.56
2018-12-06T02:18:02.786Z,0.63
2018-12-06T02:20:28.681Z,0.62
2018-12-06T02:22:54.531Z,0.67
2018-12-06T02:25:20.405Z,0.64
2018-12-06T02:27:46.259Z,0.60
2018-12-06T02:30:12.227Z,0.63
2018-12-06T02:32:38.108Z,0.66
2018-12-06T02:35:04.091Z,0.63
2018-12-06T02:37:30.006Z,0.67
2018-12-06T02:39:55.845Z,0.72
2018-12-06T02:42:21.724Z,0.94
2018-12-06T02:44:47.606Z,0.99
2018-12-06T02:47:13.487Z,0.93
2018-12-06T02:49:39.307Z,0.85
2018-12-06T02:52:05.212Z,0.89
2018-12-06T02:54:31.066Z,0.82
2018-12-06T02:56:56.981Z,0.89
2018-12-06T02:59:22.823Z,0.86
2018-12-06T03:01:48.778Z,0.82
2018-12-06T03:04:14.635Z,0.86
2018-12-06T03:06:40.649Z,1.02
2018-12-06T03:09:06.649Z,1.14
2018-12-06T03:11:32.515Z,1.06
2018-12-06T03:13:58.407Z,1.21
2018-12-06T03:16:24.274Z,1.11
2018-12-06T03:18:50.268Z,1.17
2018-12-06T03:21:16.157Z,1.14
2018-12-06T03:23:42.026Z,1.11
2018-12-06T03:26:07.870Z,1.10
2018-12-06T03:28:33.770Z,1.08
2018-12-06T03:30:59.666Z,0.99
2018-12-06T03:33:25.558Z,1.11
2018-12-06T03:35:51.432Z,1.15
2018-12-06T03:38:17.275Z,1.01
2018-12-06T03:40:43.140Z,0.99
2018-12-06T03:43:09.015Z,0.93
2018-12-06T03:45:34.885Z,0.85
2018-12-06T03:48:00.766Z,0.93
2018-12-06T03:50:26.636Z,0.89
2018-12-06T03:52:52.493Z,0.89
2018-12-06T03:55:18.379Z,0.93
2018-12-06T03:57:44.243Z,0.92
2018-12-06T04:00:10.137Z,0.90
2018-12-06T04:02:36.011Z,0.90
2018-12-06T04:05:01.904Z,1.04
2018-12-06T04:07:27.746Z,0.97
2018-12-06T04:09:53.611Z,0.94
2018-12-06T04:12:19.588Z,0.85
2018-12-06T04:14:45.430Z,1.04
2018-12-06T04:17:11.299Z,1.11
2018-12-06T04:19:37.138Z,1.05
2018-12-06T04:22:02.990Z,0.92
2018-12-06T04:24:28.849Z,0.93
2018-12-06T04:26:54.761Z,0.89
2018-12-06T04:29:20.614Z,0.98
2018-12-06T04:31:46.475Z,0.97
2018-12-06T04:34:12.332Z,0.87
2018-12-06T04:36:38.218Z,0.74
2018-12-06T04:39:04.693Z,0.82
2018-12-06T04:41:30.563Z,0.86
2018-12-06T04:43:56.416Z,0.95
2018-12-06T04:46:22.279Z,1.07
2018-12-06T04:48:48.159Z,0.98
2018-12-06T04:51:14.100Z,0.87
2018-12-06T04:53:39.946Z,0.85
2018-12-06T04:56:05.880Z,0.83
2018-12-06T04:58:31.791Z,0.77
2018-12-06T05:00:57.671Z,0.68
2018-12-06T05:03:23.533Z,0.69
2018-12-06T05:05:49.365Z,0.67
2018-12-06T05:08:15.229Z,0.67
2018-12-06T05:10:41.068Z,0.64
2018-12-06T05:13:06.961Z,0.70
2018-12-06T05:15:32.811Z,0.73
2018-12-06T05:17:58.708Z,0.75
2018-12-06T05:20:24.583Z,0.71
2018-12-06T05:22:50.542Z,0.77
2018-12-06T05:25:16.394Z,0.67
2018-12-06T05:27:42.234Z,0.75
2018-12-06T05:30:08.524Z,0.93
2018-12-06T05:32:34.541Z,0.97
2018-12-06T05:35:00.545Z,0.87
2018-12-06T05:37:26.439Z,0.88
2018-12-06T05:39:52.295Z,0.91
2018-12-06T05:42:18.145Z,1.04
2018-12-06T05:44:44.010Z,0.99
2018-12-06T05:47:09.876Z,1.01
2018-12-06T05:49:35.691Z,1.10
2018-12-06T05:52:01.578Z,1.23
2018-12-06T05:54:27.425Z,1.05
2018-12-06T05:56:53.262Z,1.11
2018-12-06T05:59:19.152Z,1.12
2018-12-06T06:01:45.023Z,1.12
2018-12-06T06:04:10.891Z,1.05
2018-12-06T06:06:36.753Z,1.01
2018-12-06T06:09:04.682Z,0.96
2018-12-06T06:11:30.530Z,0.89
2018-12-06T06:13:56.536Z,0.84
2018-12-06T06:16:22.398Z,0.77
2018-12-06T06:18:48.252Z,0.80
2018-12-06T06:21:14.136Z,0.79
2018-12-06T06:23:39.966Z,0.79
2018-12-06T06:26:05.842Z,0.78
2018-12-06T06:28:31.698Z,0.79
2018-12-06T06:34:26.995Z,0.85
2018-12-06T06:36:52.890Z,0.84
2018-12-06T06:39:18.719Z,0.82
2018-12-06T06:41:44.579Z,0.80
2018-12-06T06:44:10.435Z,0.81
2018-12-06T06:46:36.312Z,0.82
2018-12-06T06:49:02.282Z,0.88
2018-12-06T06:51:28.242Z,0.83
2018-12-06T06:53:54.100Z,0.81
2018-12-06T06:56:19.944Z,0.82
2018-12-06T06:58:45.820Z,0.85
2018-12-06T07:01:11.765Z,0.89
2018-12-06T07:03:37.600Z,0.88
2018-12-06T07:06:03.456Z,0.93
2018-12-06T07:08:29.354Z,0.92
2018-12-06T07:10:55.206Z,0.93
2018-12-06T07:13:21.094Z,0.94
2018-12-06T07:15:46.946Z,0.93
2018-12-06T07:18:12.832Z,0.92
2018-12-06T07:20:38.709Z,0.96
2018-12-06T07:23:04.956Z,0.96
2018-12-06T07:25:30.855Z,0.99
2018-12-06T07:27:57.094Z,0.97
2018-12-06T07:30:22.986Z,0.99
2018-12-06T07:32:48.906Z,1.08
2018-12-06T07:35:14.747Z,1.11
2018-12-06T07:37:40.681Z,1.12
2018-12-06T07:40:06.673Z,1.09
2018-12-06T07:42:32.554Z,1.11
2018-12-06T07:44:58.532Z,1.12
2018-12-06T07:47:24.741Z,1.21
2018-12-06T07:49:50.634Z,1.22
2018-12-06T07:52:17.347Z,1.23
2018-12-06T07:54:43.250Z,1.39
2018-12-06T07:57:09.122Z,1.31
2018-12-06T07:59:35.001Z,1.29
2018-12-06T08:02:00.866Z,1.34
2018-12-06T08:04:26.732Z,1.33
2018-12-06T08:06:52.562Z,1.37
2018-12-06T08:09:18.517Z,1.48
2018-12-06T08:11:44.423Z,1.39
2018-12-06T08:14:10.678Z,1.40
2018-12-06T08:16:36.528Z,1.40
2018-12-06T08:19:02.525Z,1.35
2018-12-06T08:21:28.391Z,1.44
2018-12-06T08:23:54.265Z,1.44
2018-12-06T08:26:21.773Z,1.47
2018-12-06T08:28:47.646Z,1.58
2018-12-06T08:31:13.494Z,1.51
2018-12-06T08:33:39.339Z,1.40
2018-12-06T08:36:05.218Z,1.39
2018-12-06T08:38:31.083Z,1.36
2018-12-06T08:40:56.965Z,1.44
2018-12-06T08:43:22.819Z,1.54
2018-12-06T08:45:48.691Z,1.60
2018-12-06T08:48:14.531Z,1.57
2018-12-06T08:50:40.438Z,1.64
2018-12-06T08:53:06.298Z,1.77
2018-12-06T08:55:32.154Z,1.90
2018-12-06T08:57:58.073Z,1.93
2018-12-06T09:00:24.879Z,2.04
2018-12-06T09:02:50.826Z,1.97
2018-12-06T09:05:16.801Z,1.94
2018-12-06T09:07:42.788Z,1.97
2018-12-06T09:10:08.818Z,1.95
2018-12-06T09:12:41.870Z,1.90
2018-12-06T09:15:08.147Z,1.90
2018-12-06T09:17:34.036Z,1.93
2018-12-06T09:19:59.950Z,1.86
2018-12-06T09:22:25.811Z,1.85
2018-12-06T09:24:51.826Z,1.91
2018-12-06T09:27:17.812Z,2.03
2018-12-06T09:29:43.724Z,2.04
2018-12-06T09:32:09.611Z,2.15
2018-12-06T09:34:35.458Z,2.32
2018-12-06T09:37:01.365Z,2.32
2018-12-06T09:39:27.243Z,2.29
2018-12-06T09:41:53.106Z,2.32
2018-12-06T09:44:18.950Z,2.44
2018-12-06T09:46:44.804Z,2.36
2018-12-06T09:49:10.670Z,2.44
2018-12-06T09:51:36.535Z,2.27
2018-12-06T09:54:02.575Z,2.64
2018-12-06T09:56:28.739Z,2.60
2018-12-06T09:58:54.640Z,2.61
2018-12-06T10:01:20.553Z,2.65
2018-12-06T10:03:46.465Z,2.70
2018-12-06T10:06:12.380Z,2.74
2018-12-06T10:08:38.372Z,2.70
2018-12-06T10:11:04.226Z,2.77
2018-12-06T10:13:30.079Z,2.99
2018-12-06T10:15:55.946Z,3.08
2018-12-06T10:18:21.812Z,3.12
2018-12-06T10:20:47.712Z,3.26
2018-12-06T10:23:13.574Z,3.20
2018-12-06T10:25:39.429Z,3.34
2018-12-06T10:28:05.387Z,3.30
2018-12-06T10:30:31.239Z,3.48
2018-12-06T10:32:57.102Z,3.40
2018-12-06T10:35:23.350Z,3.47
2018-12-06T10:37:49.224Z,3.35
2018-12-06T10:40:15.121Z,3.33
2018-12-06T10:42:40.978Z,3.35
2018-12-06T10:45:06.913Z,3.40
2018-12-06T10:47:32.794Z,3.40
2018-12-06T10:49:58.872Z,3.23
2018-12-06T10:52:24.701Z,3.23
2018-12-06T10:54:50.567Z,3.22
2018-12-06T10:57:16.447Z,3.40
2018-12-06T10:59:42.335Z,3.44
2018-12-06T11:02:14.435Z,3.42
2018-12-06T11:04:43.199Z,3.27
2018-12-06T11:07:09.060Z,3.18
2018-12-06T11:09:34.987Z,3.13
2018-12-06T11:12:00.892Z,3.13
2018-12-06T11:14:26.785Z,3.20
2018-12-06T11:16:52.654Z,3.21
2018-12-06T11:19:18.529Z,3.15
2018-12-06T11:21:44.445Z,2.84
2018-12-06T11:24:10.445Z,2.72
2018-12-06T11:26:36.383Z,2.60
2018-12-06T11:29:02.270Z,2.63
2018-12-06T11:31:28.135Z,2.79
2018-12-06T11:33:54.230Z,2.83
2018-12-06T11:36:20.128Z,2.90
2018-12-06T11:38:46.005Z,2.74
2018-12-06T11:41:11.916Z,2.88
2018-12-06T11:43:37.792Z,2.87
2018-12-06T11:46:03.667Z,2.99
2018-12-06T11:48:29.565Z,2.86
2018-12-06T11:50:55.431Z,2.94
2018-12-06T11:53:21.302Z,2.88
2018-12-06T11:55:47.168Z,3.04
2018-12-06T11:58:13.060Z,3.12
2018-12-06T12:00:38.963Z,3.17
2018-12-06T12:03:04.977Z,3.25
2018-12-06T12:05:30.912Z,3.16
2018-12-06T12:07:56.782Z,3.12
2018-12-06T12:10:22.698Z,3.08
2018-12-06T12:12:48.588Z,3.22
2018-12-06T12:15:14.488Z,3.23
2018-12-06T12:17:40.492Z,3.20
2018-12-06T12:20:06.593Z,3.09
2018-12-06T12:22:32.718Z,3.09
2018-12-06T12:24:58.691Z,3.39
2018-12-06T12:27:24.669Z,3.50
2018-12-06T12:29:50.669Z,3.48
2018-12-06T12:32:16.594Z,3.39
2018-12-06T12:34:42.690Z,3.44
2018-12-06T12:37:08.745Z,3.56
2018-12-06T12:39:34.658Z,3.43
2018-12-06T12:42:00.574Z,3.46
2018-12-06T12:44:26.476Z,3.34
2018-12-06T12:46:52.424Z,3.32
2018-12-06T12:49:18.600Z,3.34
2018-12-06T12:51:44.797Z,3.31
2018-12-06T12:54:10.939Z,3.29
2018-12-06T12:56:37.159Z,3.19
2018-12-06T12:59:03.315Z,3.34
2018-12-06T13:01:29.526Z,3.55
2018-12-06T13:03:55.664Z,3.54
2018-12-06T13:06:21.681Z,3.72
2018-12-06T13:08:47.794Z,3.69
2018-12-06T13:11:13.931Z,3.65
2018-12-06T13:13:40.071Z,3.55
2018-12-06T13:16:06.240Z,3.53
2018-12-06T13:18:32.458Z,3.62
2018-12-06T13:20:58.395Z,3.66
2018-12-06T13:23:24.539Z,3.55
2018-12-06T13:25:50.674Z,3.46
2018-12-06T13:28:16.857Z,3.50
2018-12-06T13:30:43.059Z,3.61
2018-12-06T13:33:09.196Z,3.66
2018-12-06T13:35:35.384Z,3.64
2018-12-06T13:38:01.636Z,3.47
2018-12-06T13:40:27.851Z,3.35
2018-12-06T13:42:53.962Z,3.30
2018-12-06T13:45:20.065Z,3.29
2018-12-06T13:47:46.253Z,3.30
2018-12-06T13:50:12.389Z,3.25
2018-12-06T13:52:38.575Z,3.37
2018-12-06T13:55:04.939Z,3.44
2018-12-06T13:57:31.068Z,3.36
2018-12-06T13:59:57.062Z,3.35
2018-12-06T14:02:23.848Z,3.34
2018-12-06T14:04:49.920Z,3.47
2018-12-06T14:07:15.829Z,3.32
2018-12-06T14:09:41.730Z,3.37
2018-12-06T14:12:07.627Z,3.43
2018-12-06T14:14:33.492Z,3.48
2018-12-06T14:16:59.406Z,3.42
2018-12-06T14:19:25.264Z,3.46
2018-12-06T14:21:51.130Z,3.42
2018-12-06T14:24:16.989Z,3.46
2018-12-06T14:26:42.887Z,3.54
2018-12-06T14:29:08.759Z,3.45
2018-12-06T14:31:34.770Z,3.47
2018-12-06T14:34:00.667Z,3.47
2018-12-06T14:36:26.595Z,3.50
2018-12-06T14:38:52.481Z,3.45
2018-12-06T14:41:18.415Z,3.61
2018-12-06T14:43:44.509Z,3.42
2018-12-06T14:46:10.881Z,3.39
2018-12-06T14:48:36.888Z,3.33
2018-12-06T14:51:06.426Z,3.39
2018-12-06T14:53:32.369Z,3.42
2018-12-06T14:55:58.247Z,3.59
2018-12-06T14:58:24.103Z,3.51
2018-12-06T15:00:49.990Z,3.50
2018-12-06T15:03:15.940Z,3.50
2018-12-06T15:05:41.828Z,3.51
2018-12-06T15:08:07.719Z,3.44
2018-12-06T15:10:33.588Z,3.37
2018-12-06T15:12:59.498Z,3.34
2018-12-06T15:15:25.628Z,3.42
2018-12-06T15:17:51.516Z,3.35
2018-12-06T15:20:17.387Z,3.29
2018-12-06T15:22:43.263Z,3.22
2018-12-06T15:25:09.134Z,3.21
2018-12-06T15:27:35.342Z,3.21
2018-12-06T15:30:01.270Z,3.22
2018-12-06T15:32:27.168Z,3.24
2018-12-06T15:34:53.010Z,3.21
2018-12-06T15:37:18.957Z,3.22
2018-12-06T15:39:44.834Z,3.23
2018-12-06T15:42:10.710Z,3.22
2018-12-06T15:44:36.586Z,3.20
2018-12-06T15:47:02.528Z,3.20
2018-12-06T15:49:28.429Z,3.25
2018-12-06T15:51:54.345Z,2.97
2018-12-06T15:54:20.297Z,3.32
2018-12-06T15:56:46.234Z,3.32
2018-12-06T15:59:12.170Z,3.28
2018-12-06T16:01:38.124Z,3.25
2018-12-06T16:04:04.026Z,3.30
2018-12-06T16:06:29.912Z,3.27
2018-12-06T16:08:55.778Z,3.26
2018-12-06T16:11:21.640Z,3.25
2018-12-06T16:13:47.531Z,3.26
2018-12-06T16:16:13.463Z,3.29
2018-12-06T16:18:39.413Z,3.32
2018-12-06T16:21:05.309Z,3.30
2018-12-06T16:23:31.210Z,3.32
2018-12-06T16:25:57.245Z,3.30
2018-12-06T16:28:23.589Z,3.31
2018-12-06T16:30:49.463Z,3.31
2018-12-06T16:33:15.374Z,3.34
2018-12-06T16:35:41.342Z,3.36
2018-12-06T16:38:07.225Z,3.35
2018-12-06T16:40:33.131Z,3.35
2018-12-06T16:42:59.000Z,3.35
2018-12-06T16:45:24.928Z,3.36
2018-12-06T16:47:51.064Z,3.32
2018-12-06T16:50:16.971Z,3.34
2018-12-06T16:52:42.849Z,3.35
2018-12-06T16:55:08.703Z,3.33
2018-12-06T16:57:34.599Z,3.34
2018-12-06T17:00:00.564Z,3.31
2018-12-06T17:02:26.477Z,3.32
2018-12-06T17:04:52.391Z,3.33
2018-12-06T17:07:18.341Z,3.33
2018-12-06T17:09:44.332Z,3.33
2018-12-06T17:12:10.226Z,3.32
2018-12-06T17:14:36.110Z,3.35
2018-12-06T17:17:02.011Z,3.37
2018-12-06T17:19:28.777Z,3.37
2018-12-06T17:21:54.733Z,3.39
2018-12-06T17:24:20.626Z,3.43
2018-12-06T17:26:46.641Z,3.56
2018-12-06T17:29:19.574Z,3.43
2018-12-06T17:31:45.462Z,3.45
2018-12-06T17:34:11.388Z,3.43
2018-12-06T17:36:37.311Z,3.60
2018-12-06T17:39:05.198Z,3.55
2018-12-06T17:41:31.121Z,3.55
2018-12-06T17:43:57.106Z,3.59
2018-12-06T17:46:23.035Z,3.51
2018-12-06T17:48:48.978Z,3.05
2018-12-06T17:51:15.655Z,3.61
2018-12-06T17:53:41.614Z,3.62
2018-12-06T17:56:07.535Z,3.54
2018-12-06T17:58:33.564Z,3.65
2018-12-06T18:00:59.463Z,3.67
2018-12-06T18:03:25.479Z,3.62
2018-12-06T18:05:51.497Z,3.71
2018-12-06T18:08:17.445Z,3.66
2018-12-06T18:10:43.364Z,3.67
2018-12-06T18:13:09.319Z,3.83
2018-12-06T18:15:35.495Z,3.69
2018-12-06T18:18:01.446Z,3.70
2018-12-06T18:20:27.351Z,3.77
2018-12-06T18:22:53.330Z,3.73
2018-12-06T18:25:19.234Z,3.72
2018-12-06T18:30:38.071Z,3.56
2018-12-06T18:33:04.067Z,3.51
2018-12-06T18:35:29.963Z,3.48
2018-12-06T18:37:55.844Z,3.42
2018-12-06T18:40:21.728Z,3.51
2018-12-06T18:42:47.599Z,3.60
2018-12-06T18:45:13.472Z,3.59
2018-12-06T18:47:39.393Z,3.53
2018-12-06T18:50:05.403Z,3.55
2018-12-06T18:52:31.333Z,3.55
2018-12-06T18:54:57.231Z,3.53
2018-12-06T18:57:23.147Z,3.58
2018-12-06T18:59:49.170Z,3.59
2018-12-06T19:02:15.070Z,3.62
2018-12-06T19:04:41.016Z,3.64
2018-12-06T19:07:06.926Z,3.70
2018-12-06T19:09:32.801Z,3.75
2018-12-06T19:11:58.686Z,3.74
2018-12-06T19:14:24.573Z,3.80
2018-12-06T19:16:50.447Z,3.86
2018-12-06T19:19:16.367Z,3.88
2018-12-06T19:21:42.264Z,3.91
2018-12-06T19:24:08.179Z,3.90
2018-12-06T19:26:34.086Z,3.90
2018-12-06T19:29:00.543Z,3.86
2018-12-06T19:31:26.470Z,3.82
2018-12-06T19:33:52.373Z,3.82
2018-12-06T19:36:18.403Z,3.87
2018-12-06T19:38:44.307Z,3.90
2018-12-06T19:41:10.184Z,3.92
2018-12-06T19:43:36.055Z,3.94
2018-12-06T19:46:01.956Z,3.93
2018-12-06T19:48:27.891Z,3.96
2018-12-06T19:50:53.819Z,3.98
2018-12-06T19:53:19.808Z,4.02
2018-12-06T19:55:45.941Z,4.17
2018-12-06T19:58:11.996Z,4.17
2018-12-06T20:00:37.923Z,4.14
2018-12-06T20:03:03.888Z,4.10
2018-12-06T20:05:29.743Z,4.07
2018-12-06T20:07:55.653Z,4.05
2018-12-06T20:10:21.575Z,4.07
2018-12-06T20:12:47.517Z,4.03
2018-12-06T20:15:13.381Z,4.03
2018-12-06T20:17:39.306Z,4.03
2018-12-06T20:20:06.634Z,4.04
2018-12-06T20:22:32.643Z,4.12
2018-12-06T20:24:58.644Z,4.09
2018-12-06T20:27:24.696Z,4.06
2018-12-06T20:29:50.590Z,4.07
2018-12-06T20:32:16.466Z,4.10
2018-12-06T20:34:42.394Z,4.09
2018-12-06T20:37:08.281Z,4.09
2018-12-06T20:39:34.193Z,4.09
2018-12-06T20:42:00.229Z,4.10
2018-12-06T20:44:26.219Z,4.14
2018-12-06T20:46:52.171Z,4.22
2018-12-06T20:49:18.078Z,4.19
2018-12-06T20:51:43.979Z,4.22
2018-12-06T20:54:10.078Z,4.25
2018-12-06T20:59:36.023Z,4.44
2018-12-06T21:02:01.958Z,4.58
2018-12-06T21:04:27.861Z,4.54
2018-12-06T21:06:54.152Z,4.44
2018-12-06T21:09:20.040Z,4.44
2018-12-06T21:11:45.927Z,4.43
2018-12-06T21:14:11.904Z,4.39
2018-12-06T21:16:37.931Z,4.36
2018-12-06T21:19:03.977Z,4.34
2018-12-06T21:21:29.915Z,4.32
2018-12-06T21:23:55.829Z,4.40
2018-12-06T21:26:21.738Z,4.37
2018-12-06T21:28:47.712Z,4.40
2018-12-06T21:31:13.579Z,4.47
2018-12-06T21:33:39.464Z,4.64
2018-12-06T21:36:05.566Z,4.62
2018-12-06T21:38:31.519Z,4.61
2018-12-06T21:40:57.461Z,4.67
2018-12-06T21:43:23.364Z,4.60
2018-12-06T21:45:49.290Z,4.58
2018-12-06T21:48:15.445Z,4.54
2018-12-06T21:50:41.336Z,4.54
2018-12-06T21:53:07.247Z,4.60
2018-12-06T21:55:33.127Z,4.72
2018-12-06T21:57:59.117Z,4.74
2018-12-06T22:00:25.025Z,4.70
2018-12-06T22:02:51.061Z,4.66
2018-12-06T22:05:17.111Z,4.63
2018-12-06T22:07:43.118Z,4.60
2018-12-06T22:10:09.052Z,4.61
2018-12-06T22:12:34.993Z,4.61
2018-12-06T22:15:02.930Z,4.68
2018-12-06T22:17:29.047Z,4.72
2018-12-06T22:19:55.136Z,4.82
2018-12-06T22:22:21.009Z,4.79
2018-12-06T22:24:46.927Z,4.78
2018-12-06T22:27:12.813Z,4.83
2018-12-06T22:29:38.682Z,4.84
2018-12-06T22:32:04.551Z,4.82
2018-12-06T22:34:30.449Z,4.83
2018-12-06T22:36:56.416Z,4.86
2018-12-06T22:39:22.282Z,4.82
2018-12-06T22:41:48.178Z,4.82
2018-12-06T22:44:14.014Z,4.84
2018-12-06T22:46:39.923Z,4.89
2018-12-06T22:49:05.903Z,4.85
2018-12-06T22:51:31.766Z,4.86
2018-12-06T22:53:57.630Z,4.94
2018-12-06T22:56:23.527Z,5.00
2018-12-06T22:58:49.395Z,5.01
2018-12-06T23:01:17.370Z,5.05
2018-12-06T23:03:43.258Z,5.07
2018-12-06T23:06:09.306Z,5.07
2018-12-06T23:08:35.193Z,5.05
2018-12-06T23:11:01.199Z,5.06
2018-12-06T23:13:27.063Z,5.12
2018-12-06T23:15:52.926Z,5.14
2018-12-06T23:18:18.815Z,5.18
2018-12-06T23:20:44.868Z,5.32
2018-12-06T23:23:17.599Z,5.47
2018-12-06T23:25:43.458Z,5.50
2018-12-06T23:28:09.332Z,5.86
2018-12-06T23:30:35.195Z,6.16
2018-12-06T23:33:01.079Z,6.39
2018-12-06T23:35:26.945Z,6.36
2018-12-06T23:37:52.786Z,6.11
2018-12-06T23:40:18.695Z,6.52
2018-12-06T23:42:44.552Z,6.90
2018-12-06T23:45:10.486Z,7.19
2018-12-06T23:47:36.955Z,7.41
2018-12-06T23:50:04.082Z,7.68
2018-12-06T23:52:29.947Z,7.82
2018-12-06T23:54:55.878Z,7.91
2018-12-06T23:57:21.751Z,8.05
2018-12-06T23:59:47.658Z,8.14
